sensor_id;sensor_type;location;lat;lon;timestamp;P1;durP1;ratioP1;P2;durP2;ratioP2
77597;SDS011;66756;42.774;23.354;2023-07-31T00:01:30;3.40;;;2.00;;
77597;SDS011;66756;42.774;23.354;2023-07-31T00:03:56;3.33;;;2.00;;
77597;SDS011;66756;42.774;23.354;2023-07-31T00:06:22;2.83;;;1.90;;
77597;SDS011;66756;42.774;23.354;2023-07-31T00:08:48;3.15;;;1.88;;
77597;SDS011;66756;42.774;23.354;2023-07-31T00:11:14;2.50;;;1.85;;
77597;SDS011;66756;42.774;23.354;2023-07-31T00:13:40;4.13;;;2.50;;
77597;SDS011;66756;42.774;23.354;2023-07-31T00:16:06;3.00;;;1.85;;
77597;SDS011;66756;42.774;23.354;2023-07-31T00:18:33;2.72;;;1.95;;
77597;SDS011;66756;42.774;23.354;2023-07-31T00:21:00;3.03;;;2.10;;
77597;SDS011;66756;42.774;23.354;2023-07-31T00:23:26;3.05;;;2.03;;
77597;SDS011;66756;42.774;23.354;2023-07-31T00:25:53;2.78;;;2.05;;
77597;SDS011;66756;42.774;23.354;2023-07-31T00:28:19;3.42;;;2.10;;
77597;SDS011;66756;42.774;23.354;2023-07-31T00:30:45;6.07;;;2.13;;
77597;SDS011;66756;42.774;23.354;2023-07-31T00:33:11;4.30;;;2.40;;
77597;SDS011;66756;42.774;23.354;2023-07-31T00:35:37;3.33;;;2.10;;
77597;SDS011;66756;42.774;23.354;2023-07-31T00:38:03;5.47;;;2.22;;
77597;SDS011;66756;42.774;23.354;2023-07-31T00:40:29;3.47;;;2.35;;
77597;SDS011;66756;42.774;23.354;2023-07-31T00:42:55;3.90;;;2.40;;
77597;SDS011;66756;42.774;23.354;2023-07-31T00:45:22;3.00;;;2.40;;
77597;SDS011;66756;42.774;23.354;2023-07-31T00:47:52;2.90;;;1.95;;
77597;SDS011;66756;42.774;23.354;2023-07-31T00:50:18;3.67;;;2.80;;
77597;SDS011;66756;42.774;23.354;2023-07-31T00:52:44;3.50;;;2.10;;
77597;SDS011;66756;42.774;23.354;2023-07-31T00:55:10;3.15;;;1.85;;
77597;SDS011;66756;42.774;23.354;2023-07-31T00:57:36;3.83;;;2.72;;
77597;SDS011;66756;42.774;23.354;2023-07-31T01:00:04;4.10;;;2.42;;
77597;SDS011;66756;42.774;23.354;2023-07-31T01:02:31;4.35;;;2.35;;
77597;SDS011;66756;42.774;23.354;2023-07-31T01:04:57;3.97;;;2.22;;
77597;SDS011;66756;42.774;23.354;2023-07-31T01:07:27;4.00;;;2.88;;
77597;SDS011;66756;42.774;23.354;2023-07-31T01:09:59;3.42;;;2.35;;
77597;SDS011;66756;42.774;23.354;2023-07-31T01:12:29;4.60;;;2.47;;
77597;SDS011;66756;42.774;23.354;2023-07-31T01:17:29;4.45;;;2.17;;
77597;SDS011;66756;42.774;23.354;2023-07-31T01:19:55;3.28;;;2.08;;
77597;SDS011;66756;42.774;23.354;2023-07-31T01:25:06;4.22;;;3.00;;
77597;SDS011;66756;42.774;23.354;2023-07-31T01:27:40;7.25;;;2.72;;
77597;SDS011;66756;42.774;23.354;2023-07-31T01:30:15;4.60;;;3.20;;
77597;SDS011;66756;42.774;23.354;2023-07-31T01:32:42;3.88;;;3.17;;
77597;SDS011;66756;42.774;23.354;2023-07-31T01:35:09;3.85;;;3.20;;
77597;SDS011;66756;42.774;23.354;2023-07-31T01:37:35;4.47;;;3.40;;
77597;SDS011;66756;42.774;23.354;2023-07-31T01:40:02;4.82;;;3.33;;
77597;SDS011;66756;42.774;23.354;2023-07-31T01:42:28;4.57;;;2.78;;
77597;SDS011;66756;42.774;23.354;2023-07-31T01:44:54;3.95;;;2.72;;
77597;SDS011;66756;42.774;23.354;2023-07-31T01:47:20;5.43;;;3.33;;
77597;SDS011;66756;42.774;23.354;2023-07-31T01:49:46;5.00;;;2.78;;
77597;SDS011;66756;42.774;23.354;2023-07-31T01:52:12;5.07;;;3.05;;
77597;SDS011;66756;42.774;23.354;2023-07-31T01:54:38;4.93;;;3.42;;
77597;SDS011;66756;42.774;23.354;2023-07-31T01:57:04;4.28;;;3.20;;
77597;SDS011;66756;42.774;23.354;2023-07-31T01:59:31;5.03;;;3.83;;
77597;SDS011;66756;42.774;23.354;2023-07-31T02:01:57;5.85;;;3.63;;
77597;SDS011;66756;42.774;23.354;2023-07-31T02:04:23;4.78;;;3.55;;
77597;SDS011;66756;42.774;23.354;2023-07-31T02:06:49;4.40;;;3.30;;
77597;SDS011;66756;42.774;23.354;2023-07-31T02:09:15;4.72;;;3.40;;
77597;SDS011;66756;42.774;23.354;2023-07-31T02:11:41;4.45;;;3.13;;
77597;SDS011;66756;42.774;23.354;2023-07-31T02:14:07;5.45;;;3.60;;
77597;SDS011;66756;42.774;23.354;2023-07-31T02:16:33;4.50;;;3.15;;
77597;SDS011;66756;42.774;23.354;2023-07-31T02:18:59;5.70;;;3.65;;
77597;SDS011;66756;42.774;23.354;2023-07-31T02:21:25;5.60;;;3.97;;
77597;SDS011;66756;42.774;23.354;2023-07-31T02:23:51;4.95;;;3.13;;
77597;SDS011;66756;42.774;23.354;2023-07-31T02:26:17;5.97;;;3.72;;
77597;SDS011;66756;42.774;23.354;2023-07-31T02:28:43;4.78;;;3.85;;
77597;SDS011;66756;42.774;23.354;2023-07-31T02:31:09;5.07;;;3.58;;
77597;SDS011;66756;42.774;23.354;2023-07-31T02:33:35;5.90;;;3.92;;
77597;SDS011;66756;42.774;23.354;2023-07-31T02:36:01;5.85;;;4.07;;
77597;SDS011;66756;42.774;23.354;2023-07-31T02:38:27;6.07;;;4.05;;
77597;SDS011;66756;42.774;23.354;2023-07-31T02:40:53;5.88;;;4.43;;
77597;SDS011;66756;42.774;23.354;2023-07-31T02:43:19;8.18;;;4.38;;
77597;SDS011;66756;42.774;23.354;2023-07-31T02:45:45;6.05;;;4.93;;
77597;SDS011;66756;42.774;23.354;2023-07-31T02:48:11;5.40;;;4.53;;
77597;SDS011;66756;42.774;23.354;2023-07-31T02:50:37;6.60;;;4.65;;
77597;SDS011;66756;42.774;23.354;2023-07-31T02:53:03;7.13;;;4.82;;
77597;SDS011;66756;42.774;23.354;2023-07-31T02:55:29;6.20;;;4.80;;
77597;SDS011;66756;42.774;23.354;2023-07-31T02:57:56;6.05;;;4.88;;
77597;SDS011;66756;42.774;23.354;2023-07-31T03:00:23;7.68;;;5.25;;
77597;SDS011;66756;42.774;23.354;2023-07-31T03:02:49;6.93;;;5.10;;
77597;SDS011;66756;42.774;23.354;2023-07-31T03:05:15;7.55;;;5.63;;
77597;SDS011;66756;42.774;23.354;2023-07-31T03:07:41;8.00;;;5.60;;
77597;SDS011;66756;42.774;23.354;2023-07-31T03:10:07;6.95;;;5.57;;
77597;SDS011;66756;42.774;23.354;2023-07-31T03:12:33;7.65;;;5.43;;
77597;SDS011;66756;42.774;23.354;2023-07-31T03:14:59;7.68;;;5.70;;
77597;SDS011;66756;42.774;23.354;2023-07-31T03:17:25;7.53;;;5.75;;
77597;SDS011;66756;42.774;23.354;2023-07-31T03:19:51;7.28;;;5.93;;
77597;SDS011;66756;42.774;23.354;2023-07-31T03:22:17;7.82;;;6.18;;
77597;SDS011;66756;42.774;23.354;2023-07-31T03:24:44;8.40;;;6.45;;
77597;SDS011;66756;42.774;23.354;2023-07-31T03:27:10;9.77;;;6.60;;
77597;SDS011;66756;42.774;23.354;2023-07-31T03:29:36;9.38;;;7.43;;
77597;SDS011;66756;42.774;23.354;2023-07-31T03:32:02;10.20;;;7.47;;
77597;SDS011;66756;42.774;23.354;2023-07-31T03:34:28;9.20;;;7.47;;
77597;SDS011;66756;42.774;23.354;2023-07-31T03:36:54;10.82;;;7.93;;
77597;SDS011;66756;42.774;23.354;2023-07-31T03:39:20;9.18;;;6.97;;
77597;SDS011;66756;42.774;23.354;2023-07-31T03:41:46;10.18;;;7.80;;
77597;SDS011;66756;42.774;23.354;2023-07-31T03:44:12;9.82;;;7.13;;
77597;SDS011;66756;42.774;23.354;2023-07-31T03:46:39;9.55;;;7.22;;
77597;SDS011;66756;42.774;23.354;2023-07-31T03:49:05;11.48;;;8.98;;
77597;SDS011;66756;42.774;23.354;2023-07-31T03:51:31;13.50;;;9.30;;
77597;SDS011;66756;42.774;23.354;2023-07-31T03:53:57;15.10;;;9.85;;
77597;SDS011;66756;42.774;23.354;2023-07-31T03:56:23;14.18;;;10.63;;
77597;SDS011;66756;42.774;23.354;2023-07-31T03:58:49;14.13;;;10.10;;
77597;SDS011;66756;42.774;23.354;2023-07-31T04:01:15;14.13;;;10.00;;
77597;SDS011;66756;42.774;23.354;2023-07-31T04:03:41;15.40;;;11.65;;
77597;SDS011;66756;42.774;23.354;2023-07-31T04:06:07;15.68;;;10.85;;
77597;SDS011;66756;42.774;23.354;2023-07-31T04:08:33;15.52;;;12.45;;
77597;SDS011;66756;42.774;23.354;2023-07-31T04:10:59;20.92;;;12.75;;
77597;SDS011;66756;42.774;23.354;2023-07-31T04:13:25;16.70;;;12.45;;
77597;SDS011;66756;42.774;23.354;2023-07-31T04:15:52;17.95;;;12.75;;
77597;SDS011;66756;42.774;23.354;2023-07-31T04:18:19;17.02;;;12.55;;
77597;SDS011;66756;42.774;23.354;2023-07-31T04:20:45;17.45;;;12.88;;
77597;SDS011;66756;42.774;23.354;2023-07-31T04:23:11;17.23;;;13.07;;
77597;SDS011;66756;42.774;23.354;2023-07-31T04:25:37;17.25;;;13.07;;
77597;SDS011;66756;42.774;23.354;2023-07-31T04:28:03;19.08;;;14.20;;
77597;SDS011;66756;42.774;23.354;2023-07-31T04:30:29;21.38;;;14.20;;
77597;SDS011;66756;42.774;23.354;2023-07-31T04:32:55;21.75;;;14.85;;
77597;SDS011;66756;42.774;23.354;2023-07-31T04:35:21;21.02;;;14.20;;
77597;SDS011;66756;42.774;23.354;2023-07-31T04:37:47;22.15;;;15.32;;
77597;SDS011;66756;42.774;23.354;2023-07-31T04:40:14;21.27;;;15.15;;
77597;SDS011;66756;42.774;23.354;2023-07-31T04:42:40;20.02;;;14.70;;
77597;SDS011;66756;42.774;23.354;2023-07-31T04:45:07;20.13;;;13.90;;
77597;SDS011;66756;42.774;23.354;2023-07-31T04:47:33;22.77;;;15.60;;
77597;SDS011;66756;42.774;23.354;2023-07-31T04:49:59;24.40;;;15.48;;
77597;SDS011;66756;42.774;23.354;2023-07-31T04:52:25;22.63;;;15.45;;
77597;SDS011;66756;42.774;23.354;2023-07-31T04:54:51;22.45;;;14.82;;
77597;SDS011;66756;42.774;23.354;2023-07-31T04:57:17;20.80;;;14.23;;
77597;SDS011;66756;42.774;23.354;2023-07-31T04:59:43;23.15;;;15.52;;
77597;SDS011;66756;42.774;23.354;2023-07-31T05:02:11;22.00;;;14.43;;
77597;SDS011;66756;42.774;23.354;2023-07-31T05:04:37;21.10;;;14.77;;
77597;SDS011;66756;42.774;23.354;2023-07-31T05:07:03;20.63;;;14.25;;
77597;SDS011;66756;42.774;23.354;2023-07-31T05:09:29;20.88;;;14.43;;
77597;SDS011;66756;42.774;23.354;2023-07-31T05:11:55;19.85;;;14.02;;
77597;SDS011;66756;42.774;23.354;2023-07-31T05:14:21;18.63;;;14.30;;
77597;SDS011;66756;42.774;23.354;2023-07-31T05:16:47;17.50;;;13.25;;
77597;SDS011;66756;42.774;23.354;2023-07-31T05:19:13;19.48;;;13.90;;
77597;SDS011;66756;42.774;23.354;2023-07-31T05:21:39;18.90;;;13.38;;
77597;SDS011;66756;42.774;23.354;2023-07-31T05:24:06;17.77;;;12.20;;
77597;SDS011;66756;42.774;23.354;2023-07-31T05:26:32;15.70;;;12.38;;
77597;SDS011;66756;42.774;23.354;2023-07-31T05:28:58;17.83;;;13.10;;
77597;SDS011;66756;42.774;23.354;2023-07-31T05:31:24;14.30;;;11.45;;
77597;SDS011;66756;42.774;23.354;2023-07-31T05:33:50;13.90;;;11.00;;
77597;SDS011;66756;42.774;23.354;2023-07-31T05:36:17;15.57;;;11.05;;
77597;SDS011;66756;42.774;23.354;2023-07-31T05:38:43;13.85;;;11.02;;
77597;SDS011;66756;42.774;23.354;2023-07-31T05:41:10;14.20;;;11.63;;
77597;SDS011;66756;42.774;23.354;2023-07-31T05:43:36;12.70;;;10.23;;
77597;SDS011;66756;42.774;23.354;2023-07-31T05:46:02;14.63;;;10.70;;
77597;SDS011;66756;42.774;23.354;2023-07-31T05:48:28;12.25;;;10.07;;
77597;SDS011;66756;42.774;23.354;2023-07-31T05:50:54;11.57;;;9.73;;
77597;SDS011;66756;42.774;23.354;2023-07-31T05:53:20;11.63;;;9.02;;
77597;SDS011;66756;42.774;23.354;2023-07-31T05:55:46;10.52;;;9.30;;
77597;SDS011;66756;42.774;23.354;2023-07-31T05:58:12;10.15;;;8.68;;
77597;SDS011;66756;42.774;23.354;2023-07-31T06:00:38;11.95;;;8.30;;
77597;SDS011;66756;42.774;23.354;2023-07-31T06:03:06;10.35;;;7.88;;
77597;SDS011;66756;42.774;23.354;2023-07-31T06:05:32;9.25;;;7.90;;
77597;SDS011;66756;42.774;23.354;2023-07-31T06:07:58;8.95;;;7.82;;
77597;SDS011;66756;42.774;23.354;2023-07-31T06:10:24;9.18;;;7.60;;
77597;SDS011;66756;42.774;23.354;2023-07-31T06:12:50;7.90;;;6.97;;
77597;SDS011;66756;42.774;23.354;2023-07-31T06:15:16;8.63;;;7.18;;
77597;SDS011;66756;42.774;23.354;2023-07-31T06:17:44;9.52;;;7.65;;
77597;SDS011;66756;42.774;23.354;2023-07-31T06:20:10;9.43;;;7.70;;
77597;SDS011;66756;42.774;23.354;2023-07-31T06:22:36;7.35;;;6.05;;
77597;SDS011;66756;42.774;23.354;2023-07-31T06:25:02;7.20;;;6.18;;
77597;SDS011;66756;42.774;23.354;2023-07-31T06:27:28;7.30;;;6.28;;
77597;SDS011;66756;42.774;23.354;2023-07-31T06:29:54;7.82;;;5.03;;
77597;SDS011;66756;42.774;23.354;2023-07-31T06:32:20;6.88;;;5.35;;
77597;SDS011;66756;42.774;23.354;2023-07-31T06:34:46;8.27;;;5.32;;
77597;SDS011;66756;42.774;23.354;2023-07-31T06:37:12;6.75;;;5.22;;
77597;SDS011;66756;42.774;23.354;2023-07-31T06:39:38;8.15;;;5.53;;
77597;SDS011;66756;42.774;23.354;2023-07-31T06:42:04;8.63;;;5.38;;
77597;SDS011;66756;42.774;23.354;2023-07-31T06:44:30;6.45;;;5.00;;
77597;SDS011;66756;42.774;23.354;2023-07-31T06:46:57;7.10;;;5.28;;
77597;SDS011;66756;42.774;23.354;2023-07-31T06:49:23;5.88;;;4.53;;
77597;SDS011;66756;42.774;23.354;2023-07-31T06:51:49;5.68;;;4.50;;
77597;SDS011;66756;42.774;23.354;2023-07-31T06:54:15;6.28;;;4.13;;
77597;SDS011;66756;42.774;23.354;2023-07-31T06:56:41;5.85;;;4.53;;
77597;SDS011;66756;42.774;23.354;2023-07-31T06:59:07;5.95;;;4.78;;
77597;SDS011;66756;42.774;23.354;2023-07-31T07:01:33;6.15;;;4.35;;
77597;SDS011;66756;42.774;23.354;2023-07-31T07:03:59;6.82;;;4.97;;
77597;SDS011;66756;42.774;23.354;2023-07-31T07:06:25;5.60;;;4.13;;
77597;SDS011;66756;42.774;23.354;2023-07-31T07:08:51;6.38;;;4.60;;
77597;SDS011;66756;42.774;23.354;2023-07-31T07:11:17;5.75;;;4.95;;
77597;SDS011;66756;42.774;23.354;2023-07-31T07:13:43;6.97;;;4.72;;
77597;SDS011;66756;42.774;23.354;2023-07-31T07:16:09;4.32;;;3.88;;
77597;SDS011;66756;42.774;23.354;2023-07-31T07:18:35;5.07;;;4.07;;
77597;SDS011;66756;42.774;23.354;2023-07-31T07:21:01;6.32;;;4.93;;
77597;SDS011;66756;42.774;23.354;2023-07-31T07:23:27;4.90;;;4.40;;
77597;SDS011;66756;42.774;23.354;2023-07-31T07:25:53;5.03;;;4.40;;
77597;SDS011;66756;42.774;23.354;2023-07-31T07:28:19;4.28;;;3.63;;
77597;SDS011;66756;42.774;23.354;2023-07-31T07:30:50;4.55;;;3.95;;
77597;SDS011;66756;42.774;23.354;2023-07-31T07:33:17;5.03;;;4.00;;
77597;SDS011;66756;42.774;23.354;2023-07-31T07:35:43;4.43;;;3.90;;
77597;SDS011;66756;42.774;23.354;2023-07-31T07:38:09;4.60;;;3.35;;
77597;SDS011;66756;42.774;23.354;2023-07-31T07:40:39;5.03;;;2.85;;
77597;SDS011;66756;42.774;23.354;2023-07-31T07:43:05;4.78;;;3.88;;
77597;SDS011;66756;42.774;23.354;2023-07-31T07:45:31;4.63;;;3.30;;
77597;SDS011;66756;42.774;23.354;2023-07-31T07:47:57;4.30;;;3.75;;
77597;SDS011;66756;42.774;23.354;2023-07-31T07:50:24;4.45;;;3.08;;
77597;SDS011;66756;42.774;23.354;2023-07-31T07:52:50;3.72;;;3.15;;
77597;SDS011;66756;42.774;23.354;2023-07-31T07:55:16;3.67;;;3.28;;
77597;SDS011;66756;42.774;23.354;2023-07-31T07:57:42;4.25;;;2.95;;
77597;SDS011;66756;42.774;23.354;2023-07-31T08:00:09;3.45;;;2.72;;
77597;SDS011;66756;42.774;23.354;2023-07-31T08:02:36;3.65;;;2.92;;
77597;SDS011;66756;42.774;23.354;2023-07-31T08:05:02;4.15;;;2.35;;
77597;SDS011;66756;42.774;23.354;2023-07-31T08:07:28;3.88;;;2.80;;
77597;SDS011;66756;42.774;23.354;2023-07-31T08:09:54;3.97;;;2.90;;
77597;SDS011;66756;42.774;23.354;2023-07-31T08:12:20;3.38;;;2.85;;
77597;SDS011;66756;42.774;23.354;2023-07-31T08:14:46;6.30;;;3.20;;
77597;SDS011;66756;42.774;23.354;2023-07-31T08:17:12;3.45;;;2.80;;
77597;SDS011;66756;42.774;23.354;2023-07-31T08:19:38;3.15;;;2.65;;
77597;SDS011;66756;42.774;23.354;2023-07-31T08:22:04;3.50;;;2.83;;
77597;SDS011;66756;42.774;23.354;2023-07-31T08:24:30;3.28;;;2.65;;
77597;SDS011;66756;42.774;23.354;2023-07-31T08:26:57;2.78;;;1.75;;
77597;SDS011;66756;42.774;23.354;2023-07-31T08:29:23;3.38;;;2.17;;
77597;SDS011;66756;42.774;23.354;2023-07-31T08:31:49;3.20;;;2.22;;
77597;SDS011;66756;42.774;23.354;2023-07-31T08:34:15;3.10;;;2.47;;
77597;SDS011;66756;42.774;23.354;2023-07-31T08:36:41;3.22;;;1.95;;
77597;SDS011;66756;42.774;23.354;2023-07-31T08:39:07;3.05;;;2.05;;
77597;SDS011;66756;42.774;23.354;2023-07-31T08:41:37;2.95;;;2.45;;
77597;SDS011;66756;42.774;23.354;2023-07-31T08:44:04;3.05;;;2.03;;
77597;SDS011;66756;42.774;23.354;2023-07-31T08:46:30;3.92;;;2.33;;
77597;SDS011;66756;42.774;23.354;2023-07-31T08:48:56;4.30;;;2.03;;
77597;SDS011;66756;42.774;23.354;2023-07-31T08:51:24;3.28;;;2.33;;
77597;SDS011;66756;42.774;23.354;2023-07-31T08:53:50;3.10;;;2.28;;
77597;SDS011;66756;42.774;23.354;2023-07-31T08:56:16;3.33;;;2.25;;
77597;SDS011;66756;42.774;23.354;2023-07-31T08:58:42;2.28;;;1.90;;
77597;SDS011;66756;42.774;23.354;2023-07-31T09:01:09;3.65;;;2.25;;
77597;SDS011;66756;42.774;23.354;2023-07-31T09:03:36;3.35;;;1.90;;
77597;SDS011;66756;42.774;23.354;2023-07-31T09:06:02;3.35;;;2.70;;
77597;SDS011;66756;42.774;23.354;2023-07-31T09:08:31;2.72;;;2.08;;
77597;SDS011;66756;42.774;23.354;2023-07-31T09:11:01;2.20;;;1.75;;
77597;SDS011;66756;42.774;23.354;2023-07-31T09:13:30;3.10;;;2.13;;
77597;SDS011;66756;42.774;23.354;2023-07-31T09:15:57;2.53;;;1.77;;
77597;SDS011;66756;42.774;23.354;2023-07-31T09:18:23;2.67;;;1.70;;
77597;SDS011;66756;42.774;23.354;2023-07-31T09:21:05;2.30;;;1.70;;
77597;SDS011;66756;42.774;23.354;2023-07-31T09:23:44;3.08;;;1.75;;
77597;SDS011;66756;42.774;23.354;2023-07-31T09:26:10;2.25;;;1.83;;
77597;SDS011;66756;42.774;23.354;2023-07-31T09:28:36;3.22;;;1.90;;
77597;SDS011;66756;42.774;23.354;2023-07-31T09:31:02;2.25;;;1.83;;
77597;SDS011;66756;42.774;23.354;2023-07-31T09:33:28;3.60;;;1.60;;
77597;SDS011;66756;42.774;23.354;2023-07-31T09:35:56;2.47;;;1.42;;
77597;SDS011;66756;42.774;23.354;2023-07-31T09:38:24;1.77;;;1.05;;
77597;SDS011;66756;42.774;23.354;2023-07-31T09:40:50;2.20;;;1.70;;
77597;SDS011;66756;42.774;23.354;2023-07-31T09:43:17;1.70;;;1.13;;
77597;SDS011;66756;42.774;23.354;2023-07-31T09:45:44;2.58;;;1.45;;
77597;SDS011;66756;42.774;23.354;2023-07-31T09:48:19;2.65;;;1.67;;
77597;SDS011;66756;42.774;23.354;2023-07-31T09:50:46;2.28;;;2.08;;
77597;SDS011;66756;42.774;23.354;2023-07-31T09:53:13;1.90;;;1.15;;
77597;SDS011;66756;42.774;23.354;2023-07-31T09:55:39;2.58;;;1.77;;
77597;SDS011;66756;42.774;23.354;2023-07-31T09:58:06;2.40;;;1.40;;
77597;SDS011;66756;42.774;23.354;2023-07-31T10:00:33;2.03;;;1.55;;
77597;SDS011;66756;42.774;23.354;2023-07-31T10:02:59;1.83;;;1.40;;
77597;SDS011;66756;42.774;23.354;2023-07-31T10:05:29;1.60;;;1.35;;
77597;SDS011;66756;42.774;23.354;2023-07-31T10:07:56;2.63;;;1.45;;
77597;SDS011;66756;42.774;23.354;2023-07-31T10:10:23;2.40;;;1.35;;
77597;SDS011;66756;42.774;23.354;2023-07-31T10:12:49;2.90;;;1.35;;
77597;SDS011;66756;42.774;23.354;2023-07-31T10:15:15;2.15;;;1.23;;
77597;SDS011;66756;42.774;23.354;2023-07-31T10:17:42;2.00;;;1.15;;
77597;SDS011;66756;42.774;23.354;2023-07-31T10:20:08;1.80;;;1.23;;
77597;SDS011;66756;42.774;23.354;2023-07-31T10:22:35;1.88;;;0.85;;
77597;SDS011;66756;42.774;23.354;2023-07-31T10:25:01;1.92;;;0.93;;
77597;SDS011;66756;42.774;23.354;2023-07-31T10:27:27;2.00;;;1.10;;
77597;SDS011;66756;42.774;23.354;2023-07-31T10:29:57;2.38;;;1.35;;
77597;SDS011;66756;42.774;23.354;2023-07-31T10:32:24;2.60;;;1.42;;
77597;SDS011;66756;42.774;23.354;2023-07-31T10:34:50;1.77;;;0.70;;
77597;SDS011;66756;42.774;23.354;2023-07-31T10:39:56;2.63;;;0.93;;
77597;SDS011;66756;42.774;23.354;2023-07-31T10:42:32;1.40;;;0.77;;
77597;SDS011;66756;42.774;23.354;2023-07-31T10:45:00;2.35;;;1.20;;
77597;SDS011;66756;42.774;23.354;2023-07-31T10:47:26;2.03;;;1.02;;
77597;SDS011;66756;42.774;23.354;2023-07-31T10:49:53;1.83;;;0.95;;
77597;SDS011;66756;42.774;23.354;2023-07-31T10:52:19;2.85;;;0.88;;
77597;SDS011;66756;42.774;23.354;2023-07-31T10:57:34;2.78;;;0.98;;
77597;SDS011;66756;42.774;23.354;2023-07-31T11:00:36;1.60;;;0.73;;
77597;SDS011;66756;42.774;23.354;2023-07-31T11:05:42;2.13;;;1.30;;
77597;SDS011;66756;42.774;23.354;2023-07-31T11:08:12;1.58;;;0.80;;
77597;SDS011;66756;42.774;23.354;2023-07-31T11:13:04;2.00;;;1.05;;
77597;SDS011;66756;42.774;23.354;2023-07-31T11:15:30;2.00;;;1.10;;
77597;SDS011;66756;42.774;23.354;2023-07-31T11:17:59;2.25;;;1.13;;
77597;SDS011;66756;42.774;23.354;2023-07-31T11:20:29;3.67;;;0.88;;
77597;SDS011;66756;42.774;23.354;2023-07-31T11:22:57;2.47;;;1.05;;
77597;SDS011;66756;42.774;23.354;2023-07-31T11:25:23;2.50;;;0.90;;
77597;SDS011;66756;42.774;23.354;2023-07-31T11:27:49;1.92;;;0.90;;
77597;SDS011;66756;42.774;23.354;2023-07-31T11:30:19;1.55;;;0.70;;
77597;SDS011;66756;42.774;23.354;2023-07-31T11:32:45;2.30;;;1.15;;
77597;SDS011;66756;42.774;23.354;2023-07-31T11:35:12;4.57;;;1.08;;
77597;SDS011;66756;42.774;23.354;2023-07-31T11:37:41;2.50;;;1.42;;
77597;SDS011;66756;42.774;23.354;2023-07-31T11:40:08;2.50;;;0.95;;
77597;SDS011;66756;42.774;23.354;2023-07-31T11:42:34;1.88;;;1.17;;
77597;SDS011;66756;42.774;23.354;2023-07-31T11:45:07;1.95;;;1.75;;
77597;SDS011;66756;42.774;23.354;2023-07-31T11:47:35;2.50;;;1.15;;
77597;SDS011;66756;42.774;23.354;2023-07-31T11:50:02;5.22;;;1.52;;
77597;SDS011;66756;42.774;23.354;2023-07-31T11:52:29;2.22;;;1.40;;
77597;SDS011;66756;42.774;23.354;2023-07-31T11:54:56;1.77;;;1.00;;
77597;SDS011;66756;42.774;23.354;2023-07-31T11:57:22;2.75;;;1.50;;
77597;SDS011;66756;42.774;23.354;2023-07-31T11:59:49;2.10;;;1.15;;
77597;SDS011;66756;42.774;23.354;2023-07-31T12:02:15;2.70;;;1.67;;
77597;SDS011;66756;42.774;23.354;2023-07-31T12:04:42;2.92;;;1.88;;
77597;SDS011;66756;42.774;23.354;2023-07-31T12:07:08;3.70;;;2.92;;
77597;SDS011;66756;42.774;23.354;2023-07-31T12:09:34;7.30;;;4.53;;
77597;SDS011;66756;42.774;23.354;2023-07-31T12:12:00;4.80;;;3.15;;
77597;SDS011;66756;42.774;23.354;2023-07-31T12:14:28;5.78;;;4.18;;
77597;SDS011;66756;42.774;23.354;2023-07-31T12:16:55;5.88;;;4.63;;
77597;SDS011;66756;42.774;23.354;2023-07-31T12:19:21;5.00;;;4.25;;
77597;SDS011;66756;42.774;23.354;2023-07-31T12:21:47;4.38;;;3.78;;
77597;SDS011;66756;42.774;23.354;2023-07-31T12:24:13;6.47;;;4.28;;
77597;SDS011;66756;42.774;23.354;2023-07-31T12:26:39;5.15;;;4.55;;
77597;SDS011;66756;42.774;23.354;2023-07-31T12:29:07;4.07;;;3.67;;
77597;SDS011;66756;42.774;23.354;2023-07-31T12:31:33;5.40;;;3.80;;
77597;SDS011;66756;42.774;23.354;2023-07-31T12:34:00;5.05;;;4.22;;
77597;SDS011;66756;42.774;23.354;2023-07-31T12:36:27;3.90;;;3.42;;
77597;SDS011;66756;42.774;23.354;2023-07-31T12:38:55;5.65;;;3.45;;
77597;SDS011;66756;42.774;23.354;2023-07-31T12:41:23;2.65;;;1.90;;
77597;SDS011;66756;42.774;23.354;2023-07-31T12:43:50;2.33;;;1.10;;
77597;SDS011;66756;42.774;23.354;2023-07-31T12:46:16;1.80;;;1.05;;
77597;SDS011;66756;42.774;23.354;2023-07-31T12:48:42;2.45;;;1.33;;
77597;SDS011;66756;42.774;23.354;2023-07-31T12:51:08;2.22;;;1.35;;
77597;SDS011;66756;42.774;23.354;2023-07-31T12:53:34;1.30;;;0.70;;
77597;SDS011;66756;42.774;23.354;2023-07-31T12:56:00;3.47;;;1.45;;
77597;SDS011;66756;42.774;23.354;2023-07-31T12:58:27;2.00;;;1.27;;
77597;SDS011;66756;42.774;23.354;2023-07-31T13:00:53;4.22;;;3.53;;
77597;SDS011;66756;42.774;23.354;2023-07-31T13:03:19;4.80;;;3.22;;
77597;SDS011;66756;42.774;23.354;2023-07-31T13:05:45;4.60;;;3.45;;
77597;SDS011;66756;42.774;23.354;2023-07-31T13:08:11;4.25;;;3.72;;
77597;SDS011;66756;42.774;23.354;2023-07-31T13:10:37;3.60;;;2.72;;
77597;SDS011;66756;42.774;23.354;2023-07-31T13:13:03;4.43;;;3.10;;
77597;SDS011;66756;42.774;23.354;2023-07-31T13:15:29;3.47;;;2.58;;
77597;SDS011;66756;42.774;23.354;2023-07-31T13:17:55;4.63;;;2.65;;
77597;SDS011;66756;42.774;23.354;2023-07-31T13:20:21;3.38;;;3.00;;
77597;SDS011;66756;42.774;23.354;2023-07-31T13:22:47;3.75;;;3.13;;
77597;SDS011;66756;42.774;23.354;2023-07-31T13:25:13;3.28;;;2.65;;
77597;SDS011;66756;42.774;23.354;2023-07-31T13:27:39;3.35;;;2.58;;
77597;SDS011;66756;42.774;23.354;2023-07-31T13:30:06;3.45;;;3.08;;
77597;SDS011;66756;42.774;23.354;2023-07-31T13:32:32;3.80;;;2.30;;
77597;SDS011;66756;42.774;23.354;2023-07-31T13:34:58;2.95;;;2.13;;
77597;SDS011;66756;42.774;23.354;2023-07-31T13:37:24;3.20;;;2.03;;
77597;SDS011;66756;42.774;23.354;2023-07-31T13:39:50;3.63;;;2.63;;
77597;SDS011;66756;42.774;23.354;2023-07-31T13:42:16;4.78;;;2.85;;
77597;SDS011;66756;42.774;23.354;2023-07-31T13:44:42;3.40;;;2.83;;
77597;SDS011;66756;42.774;23.354;2023-07-31T13:47:08;4.40;;;2.90;;
77597;SDS011;66756;42.774;23.354;2023-07-31T13:49:35;3.25;;;2.55;;
77597;SDS011;66756;42.774;23.354;2023-07-31T13:52:01;4.15;;;2.83;;
77597;SDS011;66756;42.774;23.354;2023-07-31T13:54:27;3.90;;;2.65;;
77597;SDS011;66756;42.774;23.354;2023-07-31T13:56:53;3.90;;;3.00;;
77597;SDS011;66756;42.774;23.354;2023-07-31T13:59:20;3.65;;;2.75;;
77597;SDS011;66756;42.774;23.354;2023-07-31T14:01:46;4.47;;;3.10;;
77597;SDS011;66756;42.774;23.354;2023-07-31T14:04:12;4.82;;;3.40;;
77597;SDS011;66756;42.774;23.354;2023-07-31T14:06:38;3.30;;;2.80;;
77597;SDS011;66756;42.774;23.354;2023-07-31T14:09:04;5.22;;;3.03;;
77597;SDS011;66756;42.774;23.354;2023-07-31T14:11:31;5.93;;;3.08;;
77597;SDS011;66756;42.774;23.354;2023-07-31T14:13:57;3.35;;;2.65;;
77597;SDS011;66756;42.774;23.354;2023-07-31T14:16:23;3.38;;;2.85;;
77597;SDS011;66756;42.774;23.354;2023-07-31T14:18:49;3.60;;;3.25;;
77597;SDS011;66756;42.774;23.354;2023-07-31T14:21:15;3.97;;;3.22;;
77597;SDS011;66756;42.774;23.354;2023-07-31T14:23:44;4.20;;;2.83;;
77597;SDS011;66756;42.774;23.354;2023-07-31T14:26:10;4.03;;;2.92;;
77597;SDS011;66756;42.774;23.354;2023-07-31T14:28:36;3.53;;;2.72;;
77597;SDS011;66756;42.774;23.354;2023-07-31T14:31:02;3.92;;;3.17;;
77597;SDS011;66756;42.774;23.354;2023-07-31T14:33:28;3.33;;;2.70;;
77597;SDS011;66756;42.774;23.354;2023-07-31T14:35:54;3.83;;;2.88;;
77597;SDS011;66756;42.774;23.354;2023-07-31T14:38:20;4.70;;;2.70;;
77597;SDS011;66756;42.774;23.354;2023-07-31T14:40:46;3.53;;;2.22;;
77597;SDS011;66756;42.774;23.354;2023-07-31T14:43:12;2.75;;;2.40;;